Dingmans Ferry, PA

01:00 PM EST on Frar 27, 2017 (GMT -0500)
Milford Road | | Change Station

Elev 904 ft 41.23 °N, 74.91 °W | Updated 46 seconds ago

ftit imsahhab
ftit imsahhab
48.4 °F
Feels Like 48 °F
N
0.2
rih varjabbli rih from Xlokk in-nofs in-nhar
Gusts 2.5 mph

Illum
High -- | Low -- °F
--% Chance of Precip.
Yesterday
High -- | Low -- °F
Precip. -- in
pressjoni 30.35 in
vizibilita 10.0 mili
s ċar
kesha tar-rih 48 °F
punt ta' nida 23 °F
umdita 37%
Rainfall 0.00 in
Snow Depth Not available.
6:36 AM 5:48 PM
New, 2% visible
METAR KFWN 271753Z AUTO 20009KT 10SM CLR 10/M04 A3034 RMK AO2 SLP278 T01001044 10100 21028 58016
pressjoni 30.35 in
vizibilita 10.0 mili
s ċar
kesha tar-rih 48 °F
punt ta' nida 23 °F
umdita 37%
Rainfall 0.00 in
Snow Depth Not available.
6:36 AM 5:48 PM
New, 2% visible
METAR KFWN 271753Z AUTO 20009KT 10SM CLR 10/M04 A3034 RMK AO2 SLP278 T01001044 10100 21028 58016

Get Your Daily Forecast Email!

Thanks for signing up!

Be on the lookout for a verification email in your inbox.

You'll start receiving the daily forecast at 8 AM.

×

10-Day Weather Forecast

Almanac

Astronomy

Feb. 27, 2017 Rise Set
Actual Time
Civil Twilight
Nautical Twilight
Astronomical Twilight
Moon
Length Of Visible Light
Length of Day
Tomorrow will be .
, % of the Moon is Illuminated

Today's Extremes

State Highs State Lows

Community

WunderPhotos

Upload Photos

1,962,540 photos uploaded!

WunderBlog® & News

Nearby

Air Quality

  Air Quality AQ Index Pollutant
Not available.

Snow Depth

Station Depth Elevation

Earthquake Activity

City Distance Mag. Time & Date
Minimum magnitude displayed is 2.5.

Coastal Water Temperatures

Post temperatura

Stations

Nearby Weather Stations

Station Location Temp kesha tar-rih punt ta' nida umdita rih Precip. Elev aggornat Type
                   

Watches & Warnings

There are currently no watches in effect.